createdAt,value
2018-08-10T00:02:30.060Z,99.90
2018-08-10T00:05:04.676Z,99.90
2018-08-10T00:07:38.537Z,99.90
2018-08-10T00:10:12.435Z,99.90
2018-08-10T00:12:47.283Z,99.90
2018-08-10T00:15:21.139Z,99.90
2018-08-10T00:17:55.031Z,99.90
2018-08-10T00:20:28.715Z,99.90
2018-08-10T00:23:02.521Z,99.90
2018-08-10T00:25:37.065Z,99.90
2018-08-10T00:28:10.944Z,99.90
2018-08-10T00:30:44.673Z,99.90
2018-08-10T00:33:18.396Z,99.90
2018-08-10T00:35:52.080Z,99.90
2018-08-10T00:38:26.652Z,99.90
2018-08-10T00:41:01.231Z,99.90
2018-08-10T00:43:35.118Z,99.90
2018-08-10T00:46:09.664Z,99.90
2018-08-10T00:48:44.347Z,99.90
2018-08-10T00:51:18.176Z,99.90
2018-08-10T00:53:51.972Z,99.90
2018-08-10T00:56:25.707Z,99.90
2018-08-10T00:59:00.280Z,99.90
2018-08-10T01:01:33.993Z,99.90
2018-08-10T01:04:07.821Z,99.90
2018-08-10T01:06:42.082Z,99.90
2018-08-10T01:09:15.785Z,99.90
2018-08-10T01:11:49.415Z,99.90
2018-08-10T01:14:23.253Z,99.90
2018-08-10T01:16:56.939Z,99.90
2018-08-10T01:19:30.831Z,99.90
2018-08-10T01:22:04.625Z,99.90
2018-08-10T01:24:38.365Z,99.90
2018-08-10T01:27:12.082Z,99.90
2018-08-10T01:29:45.790Z,99.90
2018-08-10T01:32:20.482Z,99.90
2018-08-10T01:34:54.304Z,99.90
2018-08-10T01:37:28.939Z,99.90
2018-08-10T01:40:02.724Z,99.90
2018-08-10T01:42:36.500Z,99.90
2018-08-10T01:45:10.333Z,99.90
2018-08-10T01:47:44.150Z,99.90
2018-08-10T01:50:17.964Z,99.90
2018-08-10T01:52:51.871Z,99.90
2018-08-10T01:55:26.423Z,99.90
2018-08-10T01:58:00.197Z,99.90
2018-08-10T02:00:34.038Z,99.90
2018-08-10T02:03:07.929Z,99.90
2018-08-10T02:05:42.509Z,99.90
2018-08-10T02:08:16.377Z,99.90
2018-08-10T02:10:50.108Z,99.90
2018-08-10T02:13:23.910Z,99.90
2018-08-10T02:15:57.673Z,99.90
2018-08-10T02:18:32.217Z,99.90
2018-08-10T02:21:06.108Z,99.90
2018-08-10T02:23:40.638Z,99.90
2018-08-10T02:26:15.328Z,99.90
2018-08-10T02:28:49.819Z,99.90
2018-08-10T02:31:23.505Z,99.90
2018-08-10T02:33:57.333Z,99.90
2018-08-10T02:36:31.198Z,99.90
2018-08-10T02:39:05.760Z,99.90
2018-08-10T02:41:39.615Z,99.90
2018-08-10T02:44:14.199Z,99.90
2018-08-10T02:46:48.048Z,99.90
2018-08-10T02:49:21.900Z,99.90
2018-08-10T02:51:55.743Z,99.90
2018-08-10T02:54:29.571Z,99.90
2018-08-10T02:57:03.371Z,99.90
2018-08-10T02:59:38.402Z,99.90
2018-08-10T03:02:12.146Z,99.90
2018-08-10T03:04:46.792Z,99.90
2018-08-10T03:07:21.274Z,99.90
2018-08-10T03:09:55.851Z,99.90
2018-08-10T03:12:29.636Z,99.90
2018-08-10T03:15:03.552Z,99.90
2018-08-10T03:17:37.364Z,99.90
2018-08-10T03:20:11.264Z,99.90
2018-08-10T03:22:45.035Z,99.90
2018-08-10T03:25:19.608Z,99.90
2018-08-10T03:27:53.308Z,99.90
2018-08-10T03:30:27.093Z,99.90
2018-08-10T03:33:00.921Z,99.90
2018-08-10T03:35:34.709Z,99.90
2018-08-10T03:38:08.541Z,99.90
2018-08-10T03:40:42.339Z,99.90
2018-08-10T03:43:16.116Z,99.90
2018-08-10T03:45:49.928Z,99.90
2018-08-10T03:48:23.782Z,99.90
2018-08-10T03:50:57.559Z,99.90
2018-08-10T03:53:32.184Z,99.90
2018-08-10T03:56:05.919Z,99.90
2018-08-10T03:58:39.989Z,99.90
2018-08-10T04:01:14.589Z,99.90
2018-08-10T04:03:48.516Z,99.90
2018-08-10T04:06:22.224Z,99.90
2018-08-10T04:08:56.828Z,99.90
2018-08-10T04:11:30.595Z,99.90
2018-08-10T04:14:04.359Z,99.90
2018-08-10T04:16:38.225Z,99.90
2018-08-10T04:19:13.504Z,99.90
2018-08-10T04:21:47.414Z,99.90
2018-08-10T04:24:21.283Z,99.90
2018-08-10T04:26:55.181Z,99.90
2018-08-10T04:29:29.771Z,99.90
2018-08-10T04:32:03.616Z,99.90
2018-08-10T04:34:37.411Z,99.90
2018-08-10T04:37:11.226Z,99.90
2018-08-10T04:39:45.204Z,99.90
2018-08-10T04:42:19.762Z,99.90
2018-08-10T04:44:53.525Z,99.90
2018-08-10T04:47:28.142Z,99.90
2018-08-10T04:50:01.953Z,99.90
2018-08-10T04:52:36.553Z,99.90
2018-08-10T04:55:10.508Z,99.90
2018-08-10T04:57:45.944Z,99.90
2018-08-10T05:00:19.713Z,99.90
2018-08-10T05:02:54.247Z,99.90
2018-08-10T05:05:27.971Z,99.90
2018-08-10T05:08:02.591Z,99.90
2018-08-10T05:10:36.402Z,99.90
2018-08-10T05:13:10.256Z,99.90
2018-08-10T05:15:44.825Z,99.90
2018-08-10T05:18:18.708Z,99.90
2018-08-10T05:20:52.437Z,99.90
2018-08-10T05:23:26.245Z,99.90
2018-08-10T05:26:00.905Z,99.90
2018-08-10T05:28:35.691Z,99.90
2018-08-10T05:31:09.670Z,99.90
2018-08-10T05:33:43.492Z,99.90
2018-08-10T05:36:17.175Z,99.90
2018-08-10T05:38:50.963Z,99.90
2018-08-10T05:41:24.813Z,99.90
2018-08-10T05:43:58.567Z,99.90
2018-08-10T05:46:33.151Z,99.90
2018-08-10T05:49:07.049Z,99.90
2018-08-10T05:51:40.849Z,99.90
2018-08-10T05:54:15.467Z,99.90
2018-08-10T05:56:49.188Z,99.90
2018-08-10T05:59:23.105Z,99.90
2018-08-10T06:01:56.994Z,99.90
2018-08-10T06:04:31.632Z,99.90
2018-08-10T06:07:05.352Z,99.90
2018-08-10T06:09:39.887Z,99.90
2018-08-10T06:12:13.873Z,99.90
2018-08-10T06:14:48.411Z,99.90
2018-08-10T06:17:22.040Z,99.90
2018-08-10T06:19:55.901Z,99.90
2018-08-10T06:22:29.692Z,99.90
2018-08-10T06:25:03.433Z,99.90
2018-08-10T06:27:37.230Z,99.90
2018-08-10T06:30:11.128Z,99.90
2018-08-10T06:32:45.687Z,99.90
2018-08-10T06:35:19.370Z,99.90
2018-08-10T06:37:53.192Z,99.90
2018-08-10T06:40:28.076Z,99.90
2018-08-10T06:43:02.031Z,99.90
2018-08-10T06:45:36.993Z,99.90
2018-08-10T06:48:10.885Z,99.90
2018-08-10T06:50:44.734Z,99.90
2018-08-10T06:53:18.597Z,99.90
2018-08-10T06:55:52.500Z,99.90
2018-08-10T06:58:26.223Z,99.90
2018-08-10T07:01:00.039Z,99.90
2018-08-10T07:03:33.791Z,99.90
2018-08-10T07:06:07.612Z,99.90
2018-08-10T07:08:42.224Z,99.90
2018-08-10T07:11:16.014Z,99.90
2018-08-10T07:13:49.736Z,99.90
2018-08-10T07:16:23.431Z,99.90
2018-08-10T07:18:57.246Z,99.90
2018-08-10T07:21:31.156Z,99.90
2018-08-10T07:24:06.120Z,99.90
2018-08-10T07:26:40.186Z,99.90
2018-08-10T07:29:14.698Z,99.90
2018-08-10T07:31:49.140Z,99.90
2018-08-10T07:34:23.824Z,99.90
2018-08-10T07:36:57.532Z,99.90
2018-08-10T07:39:32.125Z,99.90
2018-08-10T07:42:05.908Z,99.90
2018-08-10T07:44:39.572Z,99.90
2018-08-10T07:47:13.420Z,99.90
2018-08-10T07:49:47.211Z,99.90
2018-08-10T07:52:21.724Z,99.90
2018-08-10T07:54:55.449Z,99.90
2018-08-10T07:57:30.138Z,99.90
2018-08-10T08:00:05.521Z,99.90
2018-08-10T08:02:39.213Z,99.90
2018-08-10T08:05:13.706Z,99.90
2018-08-10T08:07:47.570Z,99.90
2018-08-10T08:10:22.164Z,99.90
2018-08-10T08:12:56.032Z,99.90
2018-08-10T08:15:30.031Z,99.90
2018-08-10T08:18:03.895Z,99.90
2018-08-10T08:20:37.921Z,99.90
2018-08-10T08:23:12.527Z,97.10
2018-08-10T08:25:46.409Z,97.00
2018-08-10T08:28:20.283Z,94.30
2018-08-10T08:30:53.959Z,90.80
2018-08-10T08:33:27.806Z,85.80
2018-08-10T08:36:02.349Z,81.80
2018-08-10T08:38:48.411Z,81.80
2018-08-10T08:41:22.087Z,79.60
2018-08-10T08:44:01.787Z,78.20
2018-08-10T08:46:35.936Z,73.20
2018-08-10T08:49:09.441Z,69.90
2018-08-10T08:51:44.838Z,69.10
2018-08-10T09:07:58.855Z,55.20
2018-08-10T09:10:32.607Z,57.40
2018-08-10T09:13:07.021Z,62.40
2018-08-10T09:15:40.778Z,62.20
2018-08-10T09:18:14.699Z,65.70
2018-08-10T09:20:49.252Z,61.90
2018-08-10T09:23:23.155Z,61.90
2018-08-10T09:25:56.826Z,63.70
2018-08-10T09:28:31.407Z,59.90
2018-08-10T09:31:07.512Z,59.90
2018-08-10T09:33:41.236Z,58.60
2018-08-10T09:36:15.068Z,60.50
2018-08-10T09:38:48.924Z,60.60
2018-08-10T09:41:23.119Z,62.10
2018-08-10T09:43:56.867Z,61.70
2018-08-10T09:46:30.700Z,60.00
2018-08-10T09:49:04.388Z,59.00
2018-08-10T09:51:39.086Z,56.90
2018-08-10T09:54:13.601Z,55.40
2018-08-10T09:56:47.987Z,54.90
2018-08-10T09:59:21.800Z,54.80
2018-08-10T10:01:55.615Z,55.70
2018-08-10T10:04:30.219Z,57.60
2018-08-10T10:07:04.055Z,57.60
2018-08-10T10:09:37.949Z,59.40
2018-08-10T10:12:12.284Z,60.90
2018-08-10T10:14:46.098Z,61.30
2018-08-10T10:17:20.672Z,62.50
2018-08-10T10:19:54.488Z,62.30
2018-08-10T10:22:28.142Z,60.70
2018-08-10T10:25:01.904Z,58.70
2018-08-10T10:27:36.536Z,56.30
2018-08-10T10:30:11.255Z,56.30
2018-08-10T10:32:45.176Z,56.90
2018-08-10T10:35:19.689Z,56.80
2018-08-10T10:37:54.879Z,56.40
2018-08-10T10:40:28.634Z,55.40
2018-08-10T10:43:02.726Z,56.10
2018-08-10T10:45:36.413Z,55.50
2018-08-10T10:48:10.284Z,55.80
2018-08-10T10:50:44.921Z,57.10
2018-08-10T10:53:18.684Z,57.10
2018-08-10T10:55:53.310Z,58.60
2018-08-10T10:58:27.267Z,58.50
2018-08-10T11:01:01.022Z,59.30
2018-08-10T11:03:34.831Z,59.90
2018-08-10T11:06:08.655Z,59.30
2018-08-10T11:08:43.243Z,55.20
2018-08-10T11:11:16.995Z,55.20
2018-08-10T11:13:50.820Z,55.70
2018-08-10T11:16:25.474Z,55.80
2018-08-10T11:18:59.916Z,56.70
2018-08-10T11:21:33.763Z,56.70
2018-08-10T11:24:08.392Z,56.50
2018-08-10T11:26:42.208Z,56.40
2018-08-10T11:29:16.758Z,56.60
2018-08-10T11:31:50.801Z,56.60
2018-08-10T11:34:24.427Z,57.00
2018-08-10T11:36:58.234Z,56.50
2018-08-10T11:39:32.029Z,56.10
2018-08-10T11:42:05.820Z,55.60
2018-08-10T11:44:40.535Z,57.00
2018-08-10T11:47:14.227Z,56.50
2018-08-10T11:49:48.072Z,56.30
2018-08-10T11:52:21.901Z,54.90
2018-08-10T11:54:56.558Z,55.80
2018-08-10T11:57:30.444Z,55.80
2018-08-10T12:00:05.011Z,56.50
2018-08-10T12:02:38.825Z,56.50
2018-08-10T12:05:13.455Z,56.00
2018-08-10T12:07:48.085Z,56.60
2018-08-10T12:10:21.916Z,56.10
2018-08-10T12:12:55.829Z,55.20
2018-08-10T12:15:29.624Z,55.80
2018-08-10T12:18:04.236Z,56.40
2018-08-10T12:20:38.172Z,56.40
2018-08-10T12:23:12.822Z,55.80
2018-08-10T12:25:47.386Z,55.30
2018-08-10T12:28:21.184Z,55.30
2018-08-10T12:30:55.593Z,55.20
2018-08-10T12:33:29.559Z,55.20
2018-08-10T12:36:04.055Z,57.10
2018-08-10T12:38:38.541Z,57.10
2018-08-10T12:41:12.347Z,57.10
2018-08-10T12:43:47.072Z,56.60
2018-08-10T12:46:20.937Z,56.60
2018-08-10T12:48:54.735Z,56.50
2018-08-10T12:51:28.664Z,56.60
2018-08-10T12:54:02.492Z,57.20
2018-08-10T12:56:36.360Z,56.90
2018-08-10T12:59:10.165Z,57.10
2018-08-10T13:01:43.942Z,56.30
2018-08-10T13:04:20.359Z,56.50
2018-08-10T13:06:54.018Z,56.40
2018-08-10T13:09:28.618Z,55.90
2018-08-10T13:12:02.386Z,55.90
2018-08-10T13:14:36.932Z,55.30
2018-08-10T13:17:10.585Z,55.30
2018-08-10T13:19:44.399Z,54.20
2018-08-10T13:22:19.002Z,53.40
2018-08-10T13:24:52.866Z,53.40
2018-08-10T13:27:26.718Z,54.40
2018-08-10T13:30:00.499Z,55.10
2018-08-10T13:32:34.142Z,54.60
2018-08-10T13:35:08.272Z,55.90
2018-08-10T13:37:43.147Z,54.50
2018-08-10T13:40:16.972Z,54.50
2018-08-10T13:42:51.812Z,56.20
2018-08-10T13:45:25.647Z,55.80
2018-08-10T13:47:59.471Z,56.30
2018-08-10T13:50:33.235Z,56.30
2018-08-10T13:53:07.741Z,56.50
2018-08-10T13:55:41.525Z,56.30
2018-08-10T13:58:16.390Z,55.90
2018-08-10T14:00:50.171Z,55.90
2018-08-10T14:03:23.924Z,56.00
2018-08-10T14:05:58.500Z,56.30
2018-08-10T14:08:32.207Z,56.60
2018-08-10T14:11:05.895Z,56.10
2018-08-10T14:13:39.564Z,56.60
2018-08-10T14:16:15.021Z,57.20
2018-08-10T14:18:48.827Z,57.10
2018-08-10T14:21:22.665Z,56.90
2018-08-10T14:23:57.290Z,57.60
2018-08-10T14:26:31.151Z,57.60
2018-08-10T14:29:04.879Z,57.60
2018-08-10T14:31:39.462Z,57.10
2018-08-10T14:34:13.084Z,57.10
2018-08-10T14:36:47.821Z,56.90
2018-08-10T14:39:22.291Z,56.60
2018-08-10T14:41:56.103Z,56.50
2018-08-10T14:44:30.723Z,56.60
2018-08-10T14:47:04.566Z,56.50
2018-08-10T14:49:39.312Z,56.30
2018-08-10T14:52:13.229Z,56.10
2018-08-10T14:54:46.845Z,56.60
2018-08-10T14:57:20.716Z,56.60
2018-08-10T14:59:54.447Z,56.40
2018-08-10T15:02:28.318Z,56.00
2018-08-10T15:05:02.069Z,56.90
2018-08-10T15:07:36.708Z,56.30
2018-08-10T15:10:10.473Z,56.30
2018-08-10T15:12:44.787Z,55.80
2018-08-10T15:15:19.178Z,55.90
2018-08-10T15:17:54.303Z,56.10
2018-08-10T15:20:28.820Z,55.90
2018-08-10T15:23:02.594Z,55.90
2018-08-10T15:25:36.374Z,55.80
2018-08-10T15:28:10.230Z,56.00
2018-08-10T15:30:44.082Z,56.00
2018-08-10T15:33:18.660Z,55.00
2018-08-10T15:35:52.307Z,55.00
2018-08-10T15:38:26.320Z,54.80
2018-08-10T15:41:00.148Z,55.10
2018-08-10T15:43:35.005Z,55.80
2018-08-10T15:46:08.775Z,55.90
2018-08-10T15:48:43.433Z,56.30
2018-08-10T15:51:17.548Z,56.30
2018-08-10T15:53:51.358Z,55.30
2018-08-10T15:56:25.185Z,55.60
2018-08-10T15:58:59.799Z,54.70
2018-08-10T16:01:34.187Z,55.20
2018-08-10T16:04:07.984Z,55.10
2018-08-10T16:06:41.786Z,54.90
2018-08-10T16:09:15.858Z,54.40
2018-08-10T16:11:49.716Z,54.30
2018-08-10T16:14:24.316Z,54.20
2018-08-10T16:16:58.295Z,54.70
2018-08-10T16:19:32.880Z,54.80
2018-08-10T16:22:06.686Z,54.90
2018-08-10T16:24:40.544Z,55.10
2018-08-10T16:27:14.292Z,55.20
2018-08-10T16:29:47.961Z,55.20
2018-08-10T16:32:21.676Z,55.10
2018-08-10T16:34:56.271Z,55.50
2018-08-10T16:37:30.068Z,55.90
2018-08-10T16:40:04.052Z,55.30
2018-08-10T16:42:38.504Z,54.90
2018-08-10T16:45:13.015Z,55.90
2018-08-10T16:47:47.607Z,55.60
2018-08-10T16:50:21.352Z,55.50
2018-08-10T16:52:56.033Z,55.70
2018-08-10T16:55:30.576Z,55.80
2018-08-10T16:58:04.470Z,55.80
2018-08-10T17:00:39.027Z,56.40
2018-08-10T17:03:12.889Z,56.40
2018-08-10T17:05:46.650Z,56.10
2018-08-10T17:08:20.490Z,56.00
2018-08-10T17:10:55.078Z,56.40
2018-08-10T17:13:28.885Z,56.40
2018-08-10T17:16:03.637Z,56.00
2018-08-10T17:18:37.282Z,56.00
2018-08-10T17:21:11.926Z,55.70
2018-08-10T17:23:45.697Z,55.70
2018-08-10T17:26:19.484Z,55.70
2018-08-10T17:28:53.257Z,56.20
2018-08-10T17:31:27.095Z,56.60
2018-08-10T17:34:01.685Z,57.20
2018-08-10T17:36:35.468Z,57.20
2018-08-10T17:39:10.046Z,57.50
2018-08-10T17:41:44.688Z,57.20
2018-08-10T17:44:18.477Z,58.20
2018-08-10T17:46:53.093Z,57.80
2018-08-10T17:49:26.863Z,57.80
2018-08-10T17:52:00.577Z,57.80
2018-08-10T17:54:34.782Z,57.60
2018-08-10T17:57:08.576Z,57.60
2018-08-10T17:59:42.486Z,57.40
2018-08-10T18:02:16.263Z,57.40
2018-08-10T18:04:50.144Z,57.40
2018-08-10T18:07:23.969Z,57.20
2018-08-10T18:09:57.842Z,57.30
2018-08-10T18:12:32.268Z,57.00
2018-08-10T18:15:05.956Z,57.00
2018-08-10T18:17:39.853Z,57.80
2018-08-10T18:20:13.747Z,57.70
2018-08-10T18:22:47.844Z,58.40
2018-08-10T18:25:21.695Z,58.80
2018-08-10T18:27:55.463Z,59.00
2018-08-10T18:30:29.369Z,59.60
2018-08-10T18:33:03.153Z,60.20
2018-08-10T18:35:37.176Z,60.70
2018-08-10T18:38:10.896Z,60.80
2018-08-10T18:40:44.752Z,60.90
2018-08-10T18:43:18.543Z,61.80
2018-08-10T18:45:52.411Z,62.00
2018-08-10T18:48:26.318Z,62.00
2018-08-10T18:51:00.385Z,62.30
2018-08-10T18:53:34.275Z,62.90
2018-08-10T18:56:08.871Z,63.70
2018-08-10T18:58:42.899Z,63.70
2018-08-10T19:01:16.827Z,64.30
2018-08-10T19:03:50.610Z,64.50
2018-08-10T19:06:25.241Z,65.70
2018-08-10T19:08:59.699Z,66.10
2018-08-10T19:11:34.256Z,66.80
2018-08-10T19:14:08.046Z,66.70
2018-08-10T19:16:41.895Z,66.50
2018-08-10T19:19:15.687Z,66.40
2018-08-10T19:21:49.522Z,66.80
2018-08-10T19:24:24.120Z,67.10
2018-08-10T19:26:57.971Z,67.00
2018-08-10T19:29:31.778Z,67.50
2018-08-10T19:32:05.533Z,67.80
2018-08-10T19:34:39.954Z,69.00
2018-08-10T19:37:14.074Z,68.80
2018-08-10T19:39:48.734Z,70.10
2018-08-10T19:42:22.517Z,69.70
2018-08-10T19:44:57.017Z,69.80
2018-08-10T19:47:30.812Z,69.80
2018-08-10T19:50:05.384Z,71.70
2018-08-10T19:52:39.170Z,71.70
2018-08-10T19:55:12.836Z,71.60
2018-08-10T19:57:46.636Z,72.10
2018-08-10T20:00:20.268Z,72.20
2018-08-10T20:02:54.092Z,71.80
2018-08-10T20:05:28.105Z,72.40
2018-08-10T20:08:01.887Z,72.80
2018-08-10T20:10:36.509Z,73.40
2018-08-10T20:13:10.310Z,73.40
2018-08-10T20:15:44.125Z,74.40
2018-08-10T20:18:17.980Z,75.50
2018-08-10T20:20:52.569Z,76.60
2018-08-10T20:23:26.503Z,76.60
2018-08-10T20:26:00.205Z,76.70
2018-08-10T20:28:34.185Z,77.70
2018-08-10T20:31:07.963Z,78.10
2018-08-10T20:33:42.705Z,79.30
2018-08-10T20:36:16.594Z,79.20
2018-08-10T20:38:50.441Z,80.10
2018-08-10T20:41:24.221Z,79.60
2018-08-10T20:43:58.692Z,79.10
2018-08-10T20:46:32.472Z,79.10
2018-08-10T20:49:07.135Z,80.10
2018-08-10T20:51:40.886Z,80.00
2018-08-10T20:54:15.456Z,80.50
2018-08-10T20:56:49.203Z,80.50
2018-08-10T20:59:23.642Z,81.60
2018-08-10T21:01:58.292Z,82.00
2018-08-10T21:04:32.836Z,82.80
2018-08-10T21:07:07.434Z,83.40
2018-08-10T21:09:41.283Z,83.40
2018-08-10T21:12:15.868Z,86.30
2018-08-10T21:14:49.687Z,86.20
2018-08-10T21:17:24.176Z,89.30
2018-08-10T21:19:58.049Z,89.30
2018-08-10T21:22:32.619Z,91.50
2018-08-10T21:25:06.495Z,91.50
2018-08-10T21:27:41.129Z,93.30
2018-08-10T21:30:15.700Z,93.70
2018-08-10T21:32:50.428Z,94.50
2018-08-10T21:35:24.221Z,94.50
2018-08-10T21:37:58.849Z,96.50
2018-08-10T21:40:33.584Z,97.40
2018-08-10T21:43:08.112Z,98.10
2018-08-10T21:45:41.906Z,98.10
2018-08-10T21:48:16.443Z,99.40
2018-08-10T21:50:51.071Z,99.90
2018-08-10T21:53:24.898Z,99.90
2018-08-10T21:55:59.380Z,99.90
2018-08-10T21:58:33.218Z,99.90
2018-08-10T22:01:07.835Z,99.90
2018-08-10T22:03:41.667Z,99.90
2018-08-10T22:06:15.422Z,99.90
2018-08-10T22:08:50.064Z,99.90
2018-08-10T22:11:24.546Z,99.90
2018-08-10T22:13:58.433Z,99.90
2018-08-10T22:19:22.577Z,99.90
2018-08-10T22:21:56.496Z,99.90
2018-08-10T22:24:30.999Z,99.90
2018-08-10T22:27:04.789Z,99.90
2018-08-10T22:29:38.528Z,99.90
2018-08-10T22:32:12.228Z,99.90
2018-08-10T22:34:46.878Z,99.90
2018-08-10T22:37:20.594Z,99.90
2018-08-10T22:39:54.294Z,99.90
2018-08-10T22:42:28.188Z,99.90
2018-08-10T22:45:02.933Z,99.90
2018-08-10T22:47:36.590Z,99.90
2018-08-10T22:50:10.563Z,99.90
2018-08-10T22:52:44.208Z,99.90
2018-08-10T22:55:18.875Z,99.90
2018-08-10T22:57:53.456Z,99.90
2018-08-10T23:00:27.332Z,99.90
2018-08-10T23:03:01.095Z,99.90
2018-08-10T23:05:36.299Z,99.90
2018-08-10T23:08:10.076Z,99.90
2018-08-10T23:10:43.875Z,99.90
2018-08-10T23:13:18.450Z,99.90
2018-08-10T23:15:52.283Z,99.90
2018-08-10T23:18:26.059Z,99.90
2018-08-10T23:21:00.595Z,99.90
2018-08-10T23:23:34.185Z,99.90
2018-08-10T23:26:08.823Z,99.90
2018-08-10T23:28:42.648Z,99.90
2018-08-10T23:31:16.472Z,99.90
2018-08-10T23:33:50.286Z,99.90
2018-08-10T23:36:24.134Z,99.90
2018-08-10T23:38:57.974Z,99.90
2018-08-10T23:41:31.758Z,99.90
2018-08-10T23:44:05.637Z,99.90
2018-08-10T23:46:39.504Z,99.90
2018-08-10T23:49:14.105Z,99.90
2018-08-10T23:51:48.692Z,99.90
2018-08-10T23:54:22.574Z,99.90
2018-08-10T23:56:56.468Z,99.90
2018-08-10T23:59:30.960Z,99.90
